createdAt,value
2019-04-30T00:01:20.374Z,64.40
2019-04-30T00:03:55.880Z,66.00
2019-04-30T00:06:27.401Z,66.10
2019-04-30T00:08:57.667Z,65.60
2019-04-30T00:11:26.819Z,65.40
2019-04-30T00:13:58.901Z,65.70
2019-04-30T00:16:31.060Z,65.90
2019-04-30T00:19:00.675Z,65.20
2019-04-30T00:21:28.594Z,65.40
2019-04-30T00:24:00.823Z,65.80
2019-04-30T00:26:28.648Z,65.90
2019-04-30T00:28:57.796Z,65.80
2019-04-30T00:31:27.594Z,65.80
2019-04-30T00:34:01.147Z,65.80
2019-04-30T00:36:34.089Z,64.30
2019-04-30T00:38:58.627Z,64.80
2019-04-30T00:41:30.174Z,64.00
2019-04-30T00:43:58.625Z,64.90
2019-04-30T00:46:29.442Z,64.30
2019-04-30T00:49:08.709Z,65.10
2019-04-30T00:51:29.704Z,65.20
2019-04-30T00:53:58.841Z,65.40
2019-04-30T00:56:28.332Z,66.00
2019-04-30T00:59:02.304Z,65.80
2019-04-30T01:01:43.500Z,66.00
2019-04-30T01:04:19.334Z,65.60
2019-04-30T01:06:48.825Z,65.00
2019-04-30T01:09:17.960Z,65.30
2019-04-30T01:11:48.158Z,65.60
2019-04-30T01:14:18.876Z,65.40
2019-04-30T01:16:49.411Z,65.70
2019-04-30T01:19:29.135Z,65.20
2019-04-30T01:21:50.904Z,65.90
2019-04-30T01:24:23.369Z,65.80
2019-04-30T01:26:51.191Z,67.90
2019-04-30T01:29:20.331Z,64.90
2019-04-30T01:31:49.531Z,64.50
2019-04-30T01:34:19.564Z,64.80
2019-04-30T01:36:52.227Z,64.80
2019-04-30T01:39:23.666Z,63.70
2019-04-30T01:41:50.750Z,65.50
2019-04-30T01:44:19.932Z,63.30
2019-04-30T01:46:51.712Z,64.20
2019-04-30T01:49:20.289Z,64.80
2019-04-30T01:51:52.878Z,64.10
2019-04-30T01:54:24.331Z,65.20
2019-04-30T01:57:10.750Z,65.30
2019-04-30T01:59:58.310Z,65.10
2019-04-30T02:02:30.338Z,65.30
2019-04-30T02:04:59.482Z,65.10
2019-04-30T02:07:28.894Z,64.80
2019-04-30T02:09:58.758Z,65.60
2019-04-30T02:12:29.682Z,65.30
2019-04-30T02:14:59.658Z,65.60
2019-04-30T02:17:29.324Z,65.20
2019-04-30T02:19:59.275Z,65.40
2019-04-30T02:22:31.255Z,65.80
2019-04-30T02:24:59.849Z,65.20
2019-04-30T02:27:29.415Z,65.50
2019-04-30T02:29:59.479Z,65.10
2019-04-30T02:32:30.523Z,65.20
2019-04-30T02:35:01.870Z,64.00
2019-04-30T02:37:40.416Z,63.10
2019-04-30T02:40:10.363Z,62.90
2019-04-30T02:42:39.848Z,64.10
2019-04-30T02:45:10.280Z,64.20
2019-04-30T02:47:40.059Z,63.00
2019-04-30T02:50:15.537Z,63.10
2019-04-30T02:52:40.293Z,63.40
2019-04-30T02:55:13.107Z,63.00
2019-04-30T02:57:42.247Z,62.50
2019-04-30T03:00:15.675Z,63.40
2019-04-30T03:02:44.882Z,63.80
2019-04-30T03:05:14.130Z,64.40
2019-04-30T03:07:43.697Z,64.10
2019-04-30T03:10:12.846Z,63.60
2019-04-30T03:12:41.986Z,63.70
2019-04-30T03:15:11.159Z,64.30
2019-04-30T03:17:44.904Z,62.00
2019-04-30T03:20:31.825Z,63.20
2019-04-30T03:22:51.220Z,62.40
2019-04-30T03:25:20.440Z,62.70
2019-04-30T03:27:49.895Z,62.80
2019-04-30T03:30:21.963Z,63.30
2019-04-30T03:32:56.630Z,62.70
2019-04-30T03:35:23.085Z,62.00
2019-04-30T03:37:52.759Z,62.10
2019-04-30T03:40:21.914Z,62.40
2019-04-30T03:42:51.100Z,62.40
2019-04-30T03:45:20.611Z,62.40
2019-04-30T03:47:50.638Z,62.50
2019-04-30T03:50:20.060Z,62.30
2019-04-30T03:52:50.346Z,62.10
2019-04-30T03:55:20.534Z,61.60
2019-04-30T03:57:51.951Z,61.90
2019-04-30T04:00:26.090Z,61.70
2019-04-30T04:02:55.224Z,61.30
2019-04-30T04:05:26.008Z,61.80
2019-04-30T04:08:02.801Z,61.20
2019-04-30T04:10:40.348Z,61.90
2019-04-30T04:13:10.387Z,60.90
2019-04-30T04:15:40.217Z,61.00
2019-04-30T04:18:10.622Z,61.10
2019-04-30T04:20:42.945Z,60.70
2019-04-30T04:23:11.183Z,60.70
2019-04-30T04:25:40.546Z,60.70
2019-04-30T04:28:10.181Z,60.40
2019-04-30T04:30:42.827Z,59.90
2019-04-30T04:33:10.583Z,58.80
2019-04-30T04:35:39.720Z,58.50
2019-04-30T04:38:12.305Z,58.60
2019-04-30T04:40:40.115Z,58.00
2019-04-30T04:43:10.377Z,58.70
2019-04-30T04:45:43.500Z,58.00
2019-04-30T04:48:10.709Z,57.50
2019-04-30T04:50:40.177Z,58.00
2019-04-30T04:53:11.510Z,57.70
2019-04-30T04:55:40.376Z,58.70
2019-04-30T04:58:12.704Z,57.40
2019-04-30T05:00:40.413Z,57.10
2019-04-30T05:03:14.103Z,57.10
2019-04-30T05:05:43.257Z,56.80
2019-04-30T05:08:12.390Z,56.90
2019-04-30T05:10:41.530Z,57.10
2019-04-30T05:13:10.686Z,56.50
2019-04-30T05:15:39.836Z,57.00
2019-04-30T05:18:09.236Z,57.10
2019-04-30T05:20:41.555Z,56.90
2019-04-30T05:23:09.567Z,56.50
2019-04-30T05:25:39.088Z,55.80
2019-04-30T05:28:08.759Z,56.00
2019-04-30T05:30:39.310Z,55.90
2019-04-30T05:33:08.944Z,56.20
2019-04-30T05:35:38.866Z,55.10
2019-04-30T05:38:09.352Z,56.30
2019-04-30T05:40:39.793Z,55.10
2019-04-30T05:43:11.379Z,55.40
2019-04-30T05:45:40.549Z,55.90
2019-04-30T05:48:09.692Z,55.30
2019-04-30T05:50:39.195Z,55.70
2019-04-30T05:53:09.068Z,55.10
2019-04-30T05:55:39.477Z,55.50
2019-04-30T05:58:09.358Z,55.10
2019-04-30T06:00:39.964Z,55.60
2019-04-30T06:03:09.629Z,55.40
2019-04-30T06:05:39.373Z,55.80
2019-04-30T06:08:09.374Z,56.00
2019-04-30T06:10:59.715Z,55.50
2019-04-30T06:13:32.002Z,55.30
2019-04-30T06:16:05.300Z,54.90
2019-04-30T06:18:34.433Z,55.10
2019-04-30T06:21:03.789Z,55.50
2019-04-30T06:23:32.938Z,55.50
2019-04-30T06:26:09.605Z,56.00
2019-04-30T06:28:32.964Z,54.10
2019-04-30T06:31:02.093Z,53.90
2019-04-30T06:33:31.280Z,54.50
2019-04-30T06:36:00.882Z,55.30
2019-04-30T06:38:30.025Z,54.70
2019-04-30T06:40:59.198Z,54.50
2019-04-30T06:43:28.833Z,53.70
2019-04-30T06:45:58.970Z,54.70
2019-04-30T06:48:29.525Z,53.40
2019-04-30T06:50:59.725Z,54.20
2019-04-30T06:53:29.380Z,54.30
2019-04-30T06:55:59.098Z,53.90
2019-04-30T06:58:29.201Z,53.60
2019-04-30T07:00:59.574Z,53.50
2019-04-30T07:03:29.174Z,54.30
2019-04-30T07:05:58.770Z,53.20
2019-04-30T07:08:39.577Z,54.00
2019-04-30T07:11:20.071Z,53.40
2019-04-30T07:13:52.248Z,52.90
2019-04-30T07:16:21.357Z,53.60
2019-04-30T07:18:50.531Z,54.10
2019-04-30T07:21:20.068Z,54.30
2019-04-30T07:23:49.469Z,52.90
2019-04-30T07:26:23.298Z,53.60
2019-04-30T07:28:54.776Z,53.40
2019-04-30T07:31:20.348Z,54.50
2019-04-30T07:33:53.014Z,51.70
2019-04-30T07:36:20.369Z,52.40
2019-04-30T07:38:54.192Z,52.10
2019-04-30T07:41:20.376Z,54.40
2019-04-30T07:43:49.673Z,53.50
2019-04-30T07:46:19.944Z,52.20
2019-04-30T07:48:50.168Z,52.20
2019-04-30T07:51:21.171Z,52.00
2019-04-30T07:53:50.697Z,53.10
2019-04-30T07:56:27.842Z,52.10
2019-04-30T07:58:51.594Z,53.50
2019-04-30T08:01:20.766Z,51.40
2019-04-30T08:04:08.836Z,52.40
2019-04-30T08:06:39.617Z,52.50
2019-04-30T08:09:10.514Z,52.50
2019-04-30T08:11:43.519Z,52.20
2019-04-30T08:14:10.780Z,52.90
2019-04-30T08:16:39.915Z,51.70
2019-04-30T08:19:09.169Z,52.30
2019-04-30T08:21:38.833Z,52.00
2019-04-30T08:24:09.238Z,50.90
2019-04-30T08:26:39.738Z,51.40
2019-04-30T08:29:09.581Z,51.30
2019-04-30T08:31:40.898Z,51.20
2019-04-30T08:34:10.933Z,51.60
2019-04-30T08:36:40.555Z,51.90
2019-04-30T08:39:09.847Z,52.60
2019-04-30T08:41:39.291Z,51.80
2019-04-30T08:44:09.493Z,53.10
2019-04-30T08:46:38.848Z,51.70
2019-04-30T08:49:09.819Z,53.20
2019-04-30T08:51:39.465Z,52.80
2019-04-30T08:54:09.625Z,50.30
2019-04-30T08:56:39.011Z,51.30
2019-04-30T08:59:08.738Z,51.40
2019-04-30T09:01:39.224Z,50.90
2019-04-30T09:04:10.366Z,50.20
2019-04-30T09:06:39.735Z,51.70
2019-04-30T09:09:11.239Z,50.40
2019-04-30T09:11:52.420Z,50.00
2019-04-30T09:14:11.508Z,50.70
2019-04-30T09:16:40.681Z,52.10
2019-04-30T09:19:09.825Z,50.60
2019-04-30T09:21:40.237Z,50.10
2019-04-30T09:24:09.665Z,50.00
2019-04-30T09:26:39.211Z,50.00
2019-04-30T09:29:09.350Z,50.00
2019-04-30T09:31:40.801Z,50.20
2019-04-30T09:34:17.008Z,50.10
2019-04-30T09:36:40.836Z,49.90
2019-04-30T09:39:10.037Z,49.50
2019-04-30T09:41:40.972Z,49.90
2019-04-30T09:44:10.129Z,50.10
2019-04-30T09:46:39.294Z,49.60
2019-04-30T09:49:09.658Z,50.20
2019-04-30T09:51:39.791Z,48.50
2019-04-30T09:54:12.432Z,50.20
2019-04-30T09:56:40.392Z,49.00
2019-04-30T09:59:09.534Z,48.50
2019-04-30T10:01:38.739Z,48.70
2019-04-30T10:04:10.152Z,49.40
2019-04-30T10:06:40.367Z,50.40
2019-04-30T10:09:11.279Z,50.60
2019-04-30T10:11:45.084Z,50.70
2019-04-30T10:14:14.259Z,48.80
2019-04-30T10:16:45.039Z,48.40
2019-04-30T10:19:15.051Z,49.00
2019-04-30T10:21:44.616Z,50.60
2019-04-30T10:24:15.754Z,47.30
2019-04-30T10:26:44.667Z,48.20
2019-04-30T10:29:13.834Z,47.30
2019-04-30T10:31:43.198Z,47.00
2019-04-30T10:34:12.404Z,47.50
2019-04-30T10:36:41.691Z,46.70
2019-04-30T10:39:11.001Z,48.00
2019-04-30T10:41:40.189Z,48.10
2019-04-30T10:44:09.339Z,47.30
2019-04-30T10:46:38.559Z,47.80
2019-04-30T10:49:09.085Z,47.60
2019-04-30T10:51:38.899Z,47.10
2019-04-30T10:54:08.821Z,47.50
2019-04-30T10:56:38.287Z,47.50
2019-04-30T10:59:07.660Z,45.80
2019-04-30T11:01:36.922Z,46.10
2019-04-30T11:04:10.552Z,46.10
2019-04-30T11:06:44.531Z,46.10
2019-04-30T11:09:13.691Z,45.60
2019-04-30T11:11:42.832Z,46.50
2019-04-30T11:14:11.996Z,45.20
2019-04-30T11:16:41.134Z,44.70
2019-04-30T11:19:10.457Z,45.20
2019-04-30T11:21:40.105Z,45.10
2019-04-30T11:24:10.104Z,44.80
2019-04-30T11:26:40.629Z,45.00
2019-04-30T11:29:10.554Z,45.40
2019-04-30T11:31:41.705Z,45.10
2019-04-30T11:34:11.209Z,45.10
2019-04-30T11:36:40.432Z,45.30
2019-04-30T11:39:11.903Z,45.70
2019-04-30T11:41:41.033Z,44.80
2019-04-30T11:44:10.357Z,45.10
2019-04-30T11:46:59.742Z,44.90
2019-04-30T11:49:29.252Z,45.10
2019-04-30T11:51:58.391Z,45.10
2019-04-30T11:54:27.529Z,45.00
2019-04-30T11:56:58.665Z,45.20
2019-04-30T11:59:29.621Z,45.60
2019-04-30T12:02:00.074Z,44.90
2019-04-30T12:04:29.876Z,44.10
2019-04-30T12:07:00.904Z,43.50
2019-04-30T12:09:40.611Z,43.00
2019-04-30T12:12:09.772Z,44.30
2019-04-30T12:14:39.566Z,44.60
2019-04-30T12:17:08.730Z,45.10
2019-04-30T12:19:38.843Z,44.60
2019-04-30T12:22:08.274Z,43.00
2019-04-30T12:24:38.844Z,43.40
2019-04-30T12:27:08.068Z,42.70
2019-04-30T12:29:37.223Z,43.60
2019-04-30T12:32:06.374Z,44.80
2019-04-30T12:34:35.546Z,44.70
2019-04-30T12:37:05.347Z,45.30
2019-04-30T12:39:34.488Z,45.50
2019-04-30T12:42:03.639Z,45.40
2019-04-30T12:44:32.787Z,44.70
2019-04-30T12:47:02.059Z,46.00
2019-04-30T12:49:32.855Z,47.40
2019-04-30T12:52:12.387Z,45.00
2019-04-30T12:54:45.753Z,45.80
2019-04-30T12:57:16.655Z,44.80
2019-04-30T12:59:45.805Z,45.50
2019-04-30T13:02:15.071Z,44.10
2019-04-30T13:04:44.218Z,44.30
2019-04-30T13:07:13.905Z,43.70
2019-04-30T13:09:44.131Z,42.90
2019-04-30T13:12:14.898Z,43.00
2019-04-30T13:14:51.655Z,43.80
2019-04-30T13:17:15.347Z,44.30
2019-04-30T13:19:44.895Z,44.40
2019-04-30T13:22:14.052Z,43.90
2019-04-30T13:24:43.449Z,43.60
2019-04-30T13:27:12.595Z,43.90
2019-04-30T13:29:45.822Z,44.60
2019-04-30T13:32:27.301Z,44.80
2019-04-30T13:34:47.527Z,44.80
2019-04-30T13:37:16.635Z,45.50
2019-04-30T13:40:03.485Z,44.80
2019-04-30T13:42:38.962Z,44.70
2019-04-30T13:45:08.924Z,44.80
2019-04-30T13:47:39.072Z,44.80
2019-04-30T13:50:09.417Z,43.90
2019-04-30T13:52:39.045Z,44.00
2019-04-30T13:55:10.749Z,44.10
2019-04-30T13:57:39.446Z,44.00
2019-04-30T14:00:12.540Z,44.10
2019-04-30T14:02:52.240Z,44.60
2019-04-30T14:05:21.389Z,44.00
2019-04-30T14:07:59.855Z,44.70
2019-04-30T14:10:30.883Z,44.40
2019-04-30T14:13:01.590Z,44.80
2019-04-30T14:15:30.748Z,44.80
2019-04-30T14:17:59.894Z,45.20
2019-04-30T14:20:29.032Z,43.50
2019-04-30T14:22:58.212Z,42.80
2019-04-30T14:25:27.352Z,43.10
2019-04-30T14:27:56.533Z,43.00
2019-04-30T14:30:25.697Z,43.60
2019-04-30T14:32:54.834Z,44.70
2019-04-30T14:35:23.986Z,43.00
2019-04-30T14:37:53.154Z,43.40
2019-04-30T14:40:22.975Z,43.50
2019-04-30T14:42:54.558Z,44.00
2019-04-30T14:45:25.778Z,43.70
2019-04-30T14:48:01.203Z,43.80
2019-04-30T14:50:34.632Z,43.70
2019-04-30T14:53:08.523Z,43.90
2019-04-30T14:55:55.681Z,44.30
2019-04-30T14:58:42.629Z,44.30
2019-04-30T15:01:13.459Z,44.20
2019-04-30T15:03:42.897Z,44.10
2019-04-30T15:06:12.189Z,43.70
2019-04-30T15:08:41.342Z,44.20
2019-04-30T15:11:10.797Z,43.60
2019-04-30T15:13:39.952Z,44.30
2019-04-30T15:16:09.095Z,44.50
2019-04-30T15:18:57.695Z,45.30
2019-04-30T15:21:26.903Z,45.10
2019-04-30T15:24:09.687Z,45.60
2019-04-30T15:26:41.237Z,43.40
2019-04-30T15:29:13.352Z,43.40
2019-04-30T15:31:42.602Z,43.60
2019-04-30T15:34:13.259Z,44.20
2019-04-30T15:36:42.400Z,44.30
2019-04-30T15:39:25.211Z,43.30
2019-04-30T15:41:54.403Z,43.00
2019-04-30T15:44:23.626Z,42.80
2019-04-30T15:46:52.871Z,42.50
2019-04-30T15:49:22.046Z,44.30
2019-04-30T15:51:51.508Z,43.50
2019-04-30T15:54:20.994Z,42.10
2019-04-30T15:56:50.350Z,43.10
2019-04-30T15:59:30.275Z,43.80
2019-04-30T16:02:01.240Z,42.90
2019-04-30T16:04:32.019Z,42.70
2019-04-30T16:07:01.174Z,43.90
2019-04-30T16:09:41.134Z,43.60
2019-04-30T16:12:21.102Z,43.40
2019-04-30T16:14:50.238Z,42.50
2019-04-30T16:17:23.761Z,43.30
2019-04-30T16:19:53.000Z,41.80
2019-04-30T16:22:22.408Z,42.80
2019-04-30T16:24:54.708Z,41.90
2019-04-30T16:27:24.688Z,40.80
2019-04-30T16:29:53.862Z,42.20
2019-04-30T16:32:24.276Z,42.10
2019-04-30T16:34:53.488Z,44.00
2019-04-30T16:37:22.745Z,44.50
2019-04-30T16:39:51.878Z,44.40
2019-04-30T16:42:21.023Z,44.60
2019-04-30T16:44:50.178Z,44.60
2019-04-30T16:47:20.019Z,44.50
2019-04-30T16:49:49.432Z,43.80
2019-04-30T16:52:19.005Z,43.30
2019-04-30T16:54:49.709Z,44.00
2019-04-30T16:57:19.066Z,43.90
2019-04-30T16:59:49.960Z,43.80
2019-04-30T17:02:19.585Z,42.20
2019-04-30T17:04:50.379Z,42.90
2019-04-30T17:07:30.542Z,43.40
2019-04-30T17:10:09.031Z,42.90
2019-04-30T17:12:59.297Z,43.60
2019-04-30T17:15:31.962Z,43.40
2019-04-30T17:18:01.118Z,43.70
2019-04-30T17:20:30.258Z,43.90
2019-04-30T17:22:59.668Z,44.70
2019-04-30T17:25:28.935Z,44.10
2019-04-30T17:28:01.076Z,44.80
2019-04-30T17:30:29.439Z,44.40
2019-04-30T17:32:59.851Z,44.90
2019-04-30T17:35:29.163Z,45.20
2019-04-30T17:37:58.298Z,45.00
2019-04-30T17:40:29.144Z,45.50
2019-04-30T17:42:58.335Z,45.50
2019-04-30T17:45:29.178Z,45.50
2019-04-30T17:47:58.535Z,45.80
2019-04-30T17:50:29.285Z,45.60
2019-04-30T17:53:00.524Z,45.70
2019-04-30T17:55:29.406Z,45.80
2019-04-30T17:57:58.644Z,46.20
2019-04-30T18:00:29.410Z,46.20
2019-04-30T18:02:58.921Z,47.10
2019-04-30T18:05:29.260Z,46.30
2019-04-30T18:07:58.735Z,45.30
2019-04-30T18:10:28.666Z,45.10
2019-04-30T18:12:57.813Z,46.40
2019-04-30T18:15:28.799Z,44.90
2019-04-30T18:18:05.385Z,44.60
2019-04-30T18:20:39.229Z,44.70
2019-04-30T18:23:26.525Z,45.20
2019-04-30T18:25:57.303Z,44.10
2019-04-30T18:28:26.613Z,45.80
2019-04-30T18:30:55.758Z,44.40
2019-04-30T18:33:25.080Z,45.60
2019-04-30T18:35:54.668Z,45.30
2019-04-30T18:38:23.807Z,44.50
2019-04-30T18:40:52.989Z,44.50
2019-04-30T18:43:22.160Z,44.70
2019-04-30T18:45:51.327Z,44.70
2019-04-30T18:48:20.466Z,44.50
2019-04-30T18:50:49.602Z,44.60
2019-04-30T18:53:20.403Z,45.10
2019-04-30T18:55:50.762Z,45.10
2019-04-30T18:58:20.195Z,45.20
2019-04-30T19:00:51.560Z,45.20
2019-04-30T19:03:21.899Z,44.90
2019-04-30T19:05:53.200Z,45.40
2019-04-30T19:08:32.787Z,45.30
2019-04-30T19:11:19.838Z,46.00
2019-04-30T19:14:09.597Z,46.10
2019-04-30T19:16:56.812Z,45.80
2019-04-30T19:19:29.485Z,45.70
2019-04-30T19:21:59.116Z,46.10
2019-04-30T19:24:28.265Z,45.80
2019-04-30T19:26:58.661Z,45.80
2019-04-30T19:29:28.453Z,46.00
2019-04-30T19:31:59.340Z,45.90
2019-04-30T19:34:31.530Z,46.20
2019-04-30T19:36:59.797Z,46.50
2019-04-30T19:39:29.304Z,46.40
2019-04-30T19:42:00.980Z,46.40
2019-04-30T19:44:29.497Z,46.60
2019-04-30T19:46:58.687Z,46.60
2019-04-30T19:49:27.821Z,46.70
2019-04-30T19:52:06.114Z,46.80
2019-04-30T19:54:29.378Z,46.70
2019-04-30T19:56:58.888Z,47.60
2019-04-30T19:59:29.414Z,47.20
2019-04-30T20:01:59.536Z,47.20
2019-04-30T20:04:34.226Z,46.90
2019-04-30T20:06:59.645Z,46.50
2019-04-30T20:09:29.168Z,46.40
2019-04-30T20:11:59.748Z,46.00
2019-04-30T20:14:29.328Z,47.00
2019-04-30T20:16:59.091Z,46.90
2019-04-30T20:19:30.621Z,46.80
2019-04-30T20:21:59.707Z,47.00
2019-04-30T20:24:29.538Z,47.30
2019-04-30T20:27:06.895Z,47.10
2019-04-30T20:29:29.708Z,47.00
2019-04-30T20:31:59.110Z,47.30
2019-04-30T20:34:29.310Z,47.20
2019-04-30T20:37:00.356Z,47.70
2019-04-30T20:39:31.913Z,47.20
2019-04-30T20:42:01.157Z,47.70
2019-04-30T20:44:31.187Z,47.90
2019-04-30T20:47:00.318Z,47.70
2019-04-30T20:49:30.487Z,48.20
2019-04-30T20:51:59.631Z,48.70
2019-04-30T20:54:29.171Z,48.70
2019-04-30T20:56:59.322Z,48.30
2019-04-30T20:59:29.026Z,48.10
2019-04-30T21:01:58.275Z,47.90
2019-04-30T21:04:27.438Z,48.00
2019-04-30T21:06:56.583Z,49.30
2019-04-30T21:09:25.727Z,48.10
2019-04-30T21:11:55.076Z,48.10
2019-04-30T21:14:24.593Z,47.80
2019-04-30T21:16:53.736Z,48.20
2019-04-30T21:19:22.872Z,48.80
2019-04-30T21:21:52.016Z,48.60
2019-04-30T21:24:21.152Z,48.60
2019-04-30T21:26:50.365Z,48.10
2019-04-30T21:29:19.605Z,48.50
2019-04-30T21:31:53.143Z,48.30
2019-04-30T21:34:23.939Z,48.50
2019-04-30T21:36:53.122Z,48.10
2019-04-30T21:39:22.300Z,47.60
2019-04-30T21:41:51.632Z,48.20
2019-04-30T21:44:20.905Z,49.00
2019-04-30T21:46:50.088Z,49.30
2019-04-30T21:49:19.267Z,48.40
2019-04-30T21:51:48.416Z,48.20
2019-04-30T21:54:17.599Z,48.90
2019-04-30T21:56:46.849Z,49.20
2019-04-30T21:59:24.272Z,49.10
2019-04-30T22:01:47.409Z,49.10
2019-04-30T22:04:16.971Z,49.10
2019-04-30T22:06:46.144Z,49.00
2019-04-30T22:09:15.876Z,49.00
2019-04-30T22:11:45.059Z,49.10
2019-04-30T22:14:14.243Z,49.10
2019-04-30T22:16:43.452Z,49.40
2019-04-30T22:19:12.636Z,49.10
2019-04-30T22:21:41.904Z,49.10
2019-04-30T22:24:11.244Z,49.80
2019-04-30T22:26:41.031Z,49.80
2019-04-30T22:29:10.207Z,50.10
2019-04-30T22:31:39.702Z,49.80
2019-04-30T22:34:08.932Z,49.10
2019-04-30T22:36:39.718Z,49.10
2019-04-30T22:39:22.472Z,49.50
2019-04-30T22:41:53.324Z,49.80
2019-04-30T22:44:22.507Z,50.00
2019-04-30T22:46:51.648Z,50.80
2019-04-30T22:49:20.792Z,50.60
2019-04-30T22:51:49.935Z,50.80
2019-04-30T22:54:19.243Z,51.10
2019-04-30T22:56:48.464Z,51.20
2019-04-30T22:59:17.641Z,51.80
2019-04-30T23:01:54.438Z,51.70
2019-04-30T23:04:27.936Z,51.70
2019-04-30T23:06:57.112Z,51.60
2019-04-30T23:09:26.404Z,51.60
2019-04-30T23:11:55.560Z,51.70
2019-04-30T23:14:24.697Z,51.50
2019-04-30T23:16:53.850Z,52.00
2019-04-30T23:19:22.990Z,51.20
2019-04-30T23:21:52.139Z,51.40
2019-04-30T23:24:21.445Z,51.40
2019-04-30T23:26:50.580Z,52.10
2019-04-30T23:29:19.789Z,50.80
2019-04-30T23:31:48.969Z,50.60
2019-04-30T23:34:18.441Z,50.00
2019-04-30T23:36:47.713Z,50.60
2019-04-30T23:39:16.852Z,50.00
2019-04-30T23:41:46.022Z,49.20
2019-04-30T23:44:15.197Z,49.80
2019-04-30T23:46:44.541Z,49.30
2019-04-30T23:49:13.708Z,49.80
2019-04-30T23:51:42.862Z,50.70
2019-04-30T23:54:12.013Z,49.10
2019-04-30T23:56:41.152Z,49.10
2019-04-30T23:59:10.321Z,49.00
